createdAt,value
2023-03-06T00:00:46.745Z,22.93
2023-03-06T00:03:13.243Z,21.00
2023-03-06T00:05:39.953Z,25.70
2023-03-06T00:08:06.601Z,21.60
2023-03-06T00:10:33.568Z,21.57
2023-03-06T00:13:02.634Z,24.07
2023-03-06T00:15:29.620Z,27.47
2023-03-06T00:17:56.364Z,23.80
2023-03-06T00:20:23.406Z,24.70
2023-03-06T00:22:50.117Z,26.13
2023-03-06T00:25:19.272Z,23.50
2023-03-06T00:27:45.852Z,28.20
2023-03-06T00:30:16.401Z,31.00
2023-03-06T00:32:43.376Z,30.03
2023-03-06T00:35:10.726Z,25.83
2023-03-06T00:37:37.082Z,31.10
2023-03-06T00:40:08.416Z,29.00
2023-03-06T00:42:34.846Z,27.60
2023-03-06T00:45:01.305Z,27.00
2023-03-06T00:47:27.765Z,27.20
2023-03-06T00:49:54.130Z,31.80
2023-03-06T00:52:20.587Z,25.80
2023-03-06T00:54:46.972Z,30.37
2023-03-06T00:57:13.367Z,29.50
2023-03-06T00:59:39.714Z,28.33
2023-03-06T01:02:06.639Z,26.63
2023-03-06T01:04:33.071Z,26.90
2023-03-06T01:06:59.542Z,25.50
2023-03-06T01:09:26.126Z,34.47
2023-03-06T01:11:52.448Z,29.40
2023-03-06T01:14:21.801Z,28.73
2023-03-06T01:16:48.927Z,31.40
2023-03-06T01:19:15.321Z,26.73
2023-03-06T01:21:41.730Z,26.90
2023-03-06T01:24:08.356Z,28.43
2023-03-06T01:26:34.889Z,29.80
2023-03-06T01:29:01.617Z,34.73
2023-03-06T01:31:28.385Z,31.67
2023-03-06T01:33:54.937Z,27.43
2023-03-06T01:36:21.332Z,26.23
2023-03-06T01:38:47.725Z,25.67
2023-03-06T01:41:17.184Z,35.17
2023-03-06T01:43:46.177Z,29.47
2023-03-06T01:46:21.692Z,31.97
2023-03-06T01:48:50.230Z,29.93
2023-03-06T01:51:16.972Z,32.13
2023-03-06T01:53:43.862Z,26.90
2023-03-06T01:56:13.222Z,30.73
2023-03-06T01:58:43.517Z,30.53
2023-03-06T02:01:12.910Z,32.27
2023-03-06T02:03:41.313Z,30.13
2023-03-06T02:06:08.801Z,22.23
2023-03-06T02:08:35.472Z,29.47
2023-03-06T02:11:09.427Z,27.50
2023-03-06T02:13:37.055Z,27.63
2023-03-06T02:16:03.729Z,32.73
2023-03-06T02:18:31.918Z,30.27
2023-03-06T02:21:02.450Z,24.23
2023-03-06T02:23:48.834Z,31.50
2023-03-06T02:26:16.163Z,22.80
2023-03-06T02:28:42.636Z,27.83
2023-03-06T02:31:21.990Z,27.40
2023-03-06T02:34:01.146Z,29.60
2023-03-06T02:36:28.682Z,19.97
2023-03-06T02:38:55.243Z,28.87
2023-03-06T02:41:21.742Z,31.50
2023-03-06T02:43:51.166Z,21.97
2023-03-06T02:46:17.760Z,24.73
2023-03-06T02:48:44.420Z,25.70
2023-03-06T02:51:10.806Z,25.60
2023-03-06T02:53:37.130Z,27.27
2023-03-06T02:56:03.550Z,25.93
2023-03-06T02:58:29.899Z,22.20
2023-03-06T03:00:56.276Z,28.10
2023-03-06T03:03:22.726Z,30.57
2023-03-06T03:05:49.109Z,20.97
2023-03-06T03:08:15.884Z,26.23
2023-03-06T03:10:42.285Z,23.30
2023-03-06T03:13:08.699Z,28.67
2023-03-06T03:15:35.140Z,27.37
2023-03-06T03:18:01.544Z,29.27
2023-03-06T03:20:27.865Z,24.60
2023-03-06T03:22:55.341Z,25.43
2023-03-06T03:25:23.766Z,23.80
2023-03-06T03:27:50.211Z,29.17
2023-03-06T03:30:17.289Z,26.70
2023-03-06T03:32:43.649Z,29.30
2023-03-06T03:35:11.081Z,31.90
2023-03-06T03:37:38.011Z,24.20
2023-03-06T03:40:06.538Z,25.37
2023-03-06T03:42:32.925Z,23.70
2023-03-06T03:45:00.887Z,23.30
2023-03-06T03:47:27.265Z,23.93
2023-03-06T03:49:53.632Z,23.50
2023-03-06T03:52:20.006Z,25.30
2023-03-06T03:54:46.388Z,24.20
2023-03-06T03:57:12.752Z,29.73
2023-03-06T03:59:39.115Z,26.93
2023-03-06T04:02:05.580Z,23.23
2023-03-06T04:04:31.992Z,25.83
2023-03-06T04:06:58.408Z,24.70
2023-03-06T04:09:24.799Z,26.27
2023-03-06T04:11:51.174Z,27.70
2023-03-06T04:14:17.652Z,33.20
2023-03-06T04:16:44.104Z,23.60
2023-03-06T04:19:11.553Z,29.23
2023-03-06T04:21:37.962Z,24.53
2023-03-06T04:24:04.737Z,28.20
2023-03-06T04:26:31.093Z,33.50
2023-03-06T04:28:58.425Z,25.60
2023-03-06T04:31:24.915Z,33.23
2023-03-06T04:33:51.312Z,27.20
2023-03-06T04:36:29.206Z,31.37
2023-03-06T04:38:56.124Z,30.80
2023-03-06T04:41:23.318Z,30.53
2023-03-06T04:43:50.337Z,28.43
2023-03-06T04:46:17.213Z,31.57
2023-03-06T04:48:45.233Z,28.80
2023-03-06T04:51:13.384Z,28.93
2023-03-06T04:53:39.949Z,43.87
2023-03-06T04:56:06.973Z,29.90
2023-03-06T04:58:33.476Z,36.37
2023-03-06T05:00:59.836Z,28.93
2023-03-06T05:03:26.301Z,34.93
2023-03-06T05:05:52.685Z,30.10
2023-03-06T05:08:19.128Z,29.90
2023-03-06T05:10:46.196Z,34.77
2023-03-06T05:13:12.732Z,30.73
2023-03-06T05:15:42.041Z,29.23
2023-03-06T05:18:08.537Z,28.93
2023-03-06T05:20:34.997Z,28.07
2023-03-06T05:23:01.681Z,30.83
2023-03-06T05:25:28.017Z,35.17
2023-03-06T05:27:54.346Z,29.90
2023-03-06T05:30:23.015Z,25.10
2023-03-06T05:32:49.664Z,33.70
2023-03-06T05:35:18.783Z,32.67
2023-03-06T05:37:45.909Z,32.20
2023-03-06T05:40:13.167Z,30.97
2023-03-06T05:42:39.611Z,29.50
2023-03-06T05:45:06.529Z,32.53
2023-03-06T05:47:33.253Z,36.73
2023-03-06T05:49:59.886Z,32.23
2023-03-06T05:52:26.233Z,30.10
2023-03-06T05:54:54.384Z,31.20
2023-03-06T05:57:22.730Z,30.93
2023-03-06T05:59:50.250Z,29.37
2023-03-06T06:02:17.754Z,29.73
2023-03-06T06:04:45.437Z,29.70
2023-03-06T06:07:15.877Z,27.63
2023-03-06T06:09:45.213Z,34.67
2023-03-06T06:12:12.146Z,36.83
2023-03-06T06:14:38.493Z,37.63
2023-03-06T06:17:05.313Z,42.93
2023-03-06T06:19:31.753Z,32.93
2023-03-06T06:21:58.522Z,38.57
2023-03-06T06:24:26.225Z,37.50
2023-03-06T06:26:54.749Z,42.57
2023-03-06T06:29:22.051Z,40.03
2023-03-06T06:31:48.816Z,36.63
2023-03-06T06:34:15.289Z,33.23
2023-03-06T06:36:41.844Z,34.67
2023-03-06T06:39:09.069Z,35.50
2023-03-06T06:41:54.868Z,43.27
2023-03-06T06:44:21.961Z,34.60
2023-03-06T06:49:36.438Z,44.43
2023-03-06T06:52:03.029Z,34.90
2023-03-06T06:54:29.480Z,36.77
2023-03-06T06:56:55.813Z,42.03
2023-03-06T06:59:23.558Z,38.43
2023-03-06T07:01:52.967Z,42.67
2023-03-06T07:04:20.020Z,38.67
2023-03-06T07:06:46.737Z,37.93
2023-03-06T07:09:13.754Z,39.27
2023-03-06T07:11:40.964Z,45.13
2023-03-06T07:14:07.309Z,39.50
2023-03-06T07:16:34.125Z,38.93
2023-03-06T07:19:00.574Z,46.07
2023-03-06T07:21:26.968Z,33.53
2023-03-06T07:23:54.219Z,34.13
2023-03-06T07:26:20.563Z,43.93
2023-03-06T07:28:52.771Z,37.00
2023-03-06T07:31:25.623Z,51.43
2023-03-06T07:33:53.855Z,49.43
2023-03-06T07:36:21.196Z,53.93
2023-03-06T07:38:47.624Z,45.50
2023-03-06T07:41:16.216Z,42.40
2023-03-06T07:43:44.223Z,42.37
2023-03-06T07:46:12.642Z,45.40
2023-03-06T07:48:40.088Z,41.40
2023-03-06T07:51:12.026Z,39.03
2023-03-06T07:53:38.368Z,39.57
2023-03-06T07:56:08.742Z,45.63
2023-03-06T07:58:36.724Z,41.57
2023-03-06T08:01:05.018Z,38.27
2023-03-06T08:03:31.437Z,35.20
2023-03-06T08:06:11.654Z,39.90
2023-03-06T08:08:40.261Z,41.00
2023-03-06T08:11:07.942Z,36.43
2023-03-06T08:13:34.796Z,37.53
2023-03-06T08:16:01.329Z,37.87
2023-03-06T08:18:27.966Z,40.67
2023-03-06T08:21:15.899Z,32.60
2023-03-06T08:23:43.366Z,38.93
2023-03-06T08:26:15.456Z,37.07
2023-03-06T08:28:42.711Z,33.47
2023-03-06T08:31:12.919Z,38.07
2023-03-06T08:33:40.395Z,41.03
2023-03-06T08:36:07.244Z,38.33
2023-03-06T08:38:33.569Z,40.73
2023-03-06T08:40:59.872Z,36.00
2023-03-06T08:43:26.248Z,37.73
2023-03-06T08:45:53.822Z,33.03
2023-03-06T08:48:20.427Z,40.23
2023-03-06T08:50:47.993Z,35.70
2023-03-06T08:53:14.510Z,32.73
2023-03-06T08:55:40.933Z,37.87
2023-03-06T08:58:07.292Z,45.07
2023-03-06T09:00:33.700Z,37.87
2023-03-06T09:03:00.199Z,39.00
2023-03-06T09:05:26.592Z,36.20
2023-03-06T09:07:53.244Z,40.43
2023-03-06T09:10:22.793Z,36.97
2023-03-06T09:12:52.477Z,59.17
2023-03-06T09:15:21.881Z,37.70
2023-03-06T09:17:48.294Z,37.00
2023-03-06T09:20:15.191Z,32.50
2023-03-06T09:22:45.557Z,41.70
2023-03-06T09:25:20.132Z,43.80
2023-03-06T09:27:53.425Z,38.67
2023-03-06T09:30:28.386Z,42.10
2023-03-06T09:32:54.727Z,36.93
2023-03-06T09:35:21.081Z,45.00
2023-03-06T09:37:48.711Z,36.30
2023-03-06T09:41:04.796Z,39.87
2023-03-06T09:43:42.537Z,45.60
2023-03-06T09:46:36.284Z,36.40
2023-03-06T09:49:16.089Z,38.40
2023-03-06T09:52:14.876Z,45.70
2023-03-06T09:54:56.894Z,35.40
2023-03-06T09:57:30.649Z,32.17
2023-03-06T10:00:04.573Z,30.70
2023-03-06T10:02:53.411Z,30.97
2023-03-06T10:05:25.993Z,29.90
2023-03-06T10:08:03.359Z,33.80
2023-03-06T10:10:44.869Z,29.93
2023-03-06T10:13:40.983Z,28.73
2023-03-06T10:16:15.483Z,36.53
2023-03-06T10:18:41.938Z,35.57
2023-03-06T10:21:29.847Z,31.47
2023-03-06T10:24:18.101Z,34.13
2023-03-06T10:27:26.682Z,42.33
2023-03-06T10:30:11.198Z,28.57
2023-03-06T10:33:00.526Z,30.00
2023-03-06T10:35:48.131Z,32.33
2023-03-06T10:38:24.829Z,35.10
2023-03-06T10:41:13.165Z,29.57
2023-03-06T10:43:44.692Z,29.30
2023-03-06T10:46:27.329Z,29.40
2023-03-06T10:48:59.328Z,27.20
2023-03-06T10:51:27.005Z,25.97
2023-03-06T10:53:55.108Z,28.90
2023-03-06T10:56:32.082Z,28.57
2023-03-06T10:59:07.472Z,23.23
2023-03-06T11:01:34.400Z,29.20
2023-03-06T11:04:28.836Z,23.73
2023-03-06T11:07:16.183Z,26.47
2023-03-06T11:10:19.357Z,24.70
2023-03-06T11:12:59.546Z,35.43
2023-03-06T11:15:28.174Z,28.50
2023-03-06T11:18:05.100Z,21.50
2023-03-06T11:20:48.544Z,24.63
2023-03-06T11:23:21.778Z,20.17
2023-03-06T11:25:50.336Z,28.97
2023-03-06T11:28:31.576Z,26.90
2023-03-06T11:31:08.487Z,32.20
2023-03-06T11:33:54.092Z,24.17
2023-03-06T11:36:41.324Z,22.50
2023-03-06T11:39:34.144Z,22.13
2023-03-06T11:42:12.493Z,20.20
2023-03-06T11:45:11.141Z,20.83
2023-03-06T11:47:54.196Z,25.83
2023-03-06T11:50:37.426Z,20.07
2023-03-06T11:53:06.484Z,23.97
2023-03-06T11:55:51.259Z,22.37
2023-03-06T11:58:36.115Z,22.33
2023-03-06T12:01:24.176Z,23.80
2023-03-06T12:04:00.812Z,21.57
2023-03-06T12:06:34.898Z,28.10
2023-03-06T12:09:14.108Z,25.93
2023-03-06T12:12:10.264Z,27.77
2023-03-06T12:14:59.940Z,27.70
2023-03-06T12:18:00.356Z,26.30
2023-03-06T12:20:53.291Z,25.70
2023-03-06T12:23:25.451Z,24.87
2023-03-06T12:26:16.699Z,24.00
2023-03-06T12:28:50.276Z,23.10
2023-03-06T12:31:35.961Z,24.07
2023-03-06T12:34:29.954Z,21.80
2023-03-06T12:37:15.377Z,20.40
2023-03-06T12:39:50.818Z,22.70
2023-03-06T12:42:51.237Z,28.50
2023-03-06T12:45:37.943Z,33.93
2023-03-06T12:48:25.666Z,24.27
2023-03-06T12:50:52.554Z,26.73
2023-03-06T12:53:27.486Z,23.03
2023-03-06T12:55:54.695Z,17.13
2023-03-06T12:58:30.137Z,21.03
2023-03-06T13:01:36.566Z,18.40
2023-03-06T13:04:24.987Z,20.37
2023-03-06T13:07:22.745Z,17.87
2023-03-06T13:10:05.564Z,17.83
2023-03-06T13:12:43.777Z,27.53
2023-03-06T13:15:33.610Z,19.63
2023-03-06T13:18:00.503Z,19.73
2023-03-06T13:20:34.929Z,19.20
2023-03-06T13:23:29.406Z,18.30
2023-03-06T13:26:01.859Z,15.90
2023-03-06T13:28:45.016Z,20.67
2023-03-06T13:31:26.343Z,19.07
2023-03-06T13:33:56.584Z,16.80
2023-03-06T13:36:39.601Z,20.77
2023-03-06T13:39:10.765Z,20.93
2023-03-06T13:41:52.547Z,15.90
2023-03-06T13:44:24.862Z,22.67
2023-03-06T13:47:20.299Z,16.20
2023-03-06T13:49:48.227Z,15.47
2023-03-06T13:52:31.484Z,19.37
2023-03-06T13:55:27.457Z,13.40
2023-03-06T13:58:12.551Z,13.37
2023-03-06T14:00:54.107Z,14.67
2023-03-06T14:03:26.372Z,12.67
2023-03-06T14:05:52.902Z,18.27
2023-03-06T14:08:24.496Z,16.20
2023-03-06T14:11:19.400Z,17.87
2023-03-06T14:13:52.648Z,16.10
2023-03-06T14:16:25.226Z,20.40
2023-03-06T14:18:55.004Z,16.07
2023-03-06T14:21:47.653Z,16.47
2023-03-06T14:24:19.887Z,14.03
2023-03-06T14:26:49.584Z,14.97
2023-03-06T14:29:27.360Z,19.00
2023-03-06T14:31:56.510Z,18.83
2023-03-06T14:34:28.708Z,14.70
2023-03-06T14:36:59.785Z,13.50
2023-03-06T14:39:40.071Z,14.90
2023-03-06T14:42:24.685Z,14.80
2023-03-06T14:45:21.140Z,16.90
2023-03-06T14:47:52.333Z,15.13
2023-03-06T14:50:23.165Z,16.23
2023-03-06T14:53:04.228Z,12.33
2023-03-06T14:55:33.220Z,12.57
2023-03-06T14:58:05.359Z,15.67
2023-03-06T15:00:41.297Z,14.77
2023-03-06T15:03:16.340Z,12.00
2023-03-06T15:05:45.276Z,17.10
2023-03-06T15:08:17.632Z,12.83
2023-03-06T15:10:58.686Z,23.83
2023-03-06T15:13:27.520Z,13.00
2023-03-06T15:16:30.676Z,14.03
2023-03-06T15:19:04.028Z,16.37
2023-03-06T15:21:36.837Z,14.37
2023-03-06T15:24:34.102Z,16.63
2023-03-06T15:27:04.026Z,14.97
2023-03-06T15:29:31.033Z,14.40
2023-03-06T15:32:34.541Z,24.03
2023-03-06T15:35:26.572Z,16.00
2023-03-06T15:37:53.291Z,16.40
2023-03-06T15:40:22.173Z,17.50
2023-03-06T15:42:51.571Z,18.40
2023-03-06T15:45:23.339Z,18.37
2023-03-06T15:47:52.451Z,15.40
2023-03-06T15:50:25.167Z,17.93
2023-03-06T15:52:52.104Z,15.07
2023-03-06T15:55:22.313Z,19.00
2023-03-06T15:57:55.303Z,15.07
2023-03-06T16:00:28.326Z,17.57
2023-03-06T16:02:56.571Z,15.50
2023-03-06T16:05:23.804Z,18.00
2023-03-06T16:07:50.681Z,16.50
2023-03-06T16:10:20.393Z,17.83
2023-03-06T16:12:53.889Z,18.53
2023-03-06T16:15:22.987Z,16.20
2023-03-06T16:17:49.429Z,19.90
2023-03-06T16:20:18.193Z,19.73
2023-03-06T16:22:49.652Z,17.57
2023-03-06T16:25:17.805Z,18.50
2023-03-06T16:27:50.530Z,20.00
2023-03-06T16:30:18.847Z,22.70
2023-03-06T16:32:45.923Z,19.90
2023-03-06T16:35:13.002Z,17.93
2023-03-06T16:37:40.290Z,22.43
2023-03-06T16:40:28.906Z,17.50
2023-03-06T16:42:55.782Z,19.13
2023-03-06T16:45:23.162Z,17.03
2023-03-06T16:47:49.561Z,16.13
2023-03-06T16:50:26.022Z,16.73
2023-03-06T16:52:54.380Z,15.90
2023-03-06T16:55:21.064Z,17.73
2023-03-06T16:57:47.733Z,16.90
2023-03-06T17:00:15.769Z,17.10
2023-03-06T17:02:47.553Z,15.10
2023-03-06T17:05:14.684Z,19.00
2023-03-06T17:07:41.220Z,17.70
2023-03-06T17:10:10.970Z,16.57
2023-03-06T17:12:37.305Z,17.30
2023-03-06T17:15:05.536Z,17.23
2023-03-06T17:17:32.347Z,19.13
2023-03-06T17:19:58.942Z,20.37
2023-03-06T17:22:27.290Z,14.33
2023-03-06T17:24:54.276Z,19.37
2023-03-06T17:27:22.133Z,18.87
2023-03-06T17:29:48.556Z,19.83
2023-03-06T17:32:15.096Z,17.37
2023-03-06T17:34:41.630Z,16.50
2023-03-06T17:37:08.039Z,18.43
2023-03-06T17:39:36.814Z,22.00
2023-03-06T17:42:04.601Z,21.70
2023-03-06T17:44:32.484Z,20.27
2023-03-06T17:46:59.216Z,19.40
2023-03-06T17:49:25.606Z,19.83
2023-03-06T17:51:52.424Z,16.20
2023-03-06T17:54:19.550Z,36.00
2023-03-06T17:56:46.216Z,24.23
2023-03-06T17:59:12.601Z,36.00
2023-03-06T18:01:38.948Z,22.33
2023-03-06T18:04:05.510Z,17.33
2023-03-06T18:06:33.441Z,23.83
2023-03-06T18:09:00.639Z,17.87
2023-03-06T18:11:27.917Z,18.40
2023-03-06T18:13:54.356Z,21.73
2023-03-06T18:16:23.624Z,19.70
2023-03-06T18:18:54.755Z,17.47
2023-03-06T18:21:24.656Z,18.83
2023-03-06T18:23:51.199Z,22.93
2023-03-06T18:26:21.757Z,19.90
2023-03-06T18:28:52.131Z,21.10
2023-03-06T18:31:24.217Z,23.53
2023-03-06T18:33:52.634Z,17.63
2023-03-06T18:36:20.897Z,19.20
2023-03-06T18:38:47.926Z,21.80
2023-03-06T18:41:14.466Z,21.33
2023-03-06T18:43:40.836Z,18.60
2023-03-06T18:46:07.606Z,26.23
2023-03-06T18:48:34.056Z,20.17
2023-03-06T18:51:09.176Z,27.63
2023-03-06T18:53:36.203Z,20.33
2023-03-06T18:56:03.374Z,23.33
2023-03-06T18:58:29.777Z,22.07
2023-03-06T19:00:58.334Z,22.20
2023-03-06T19:03:25.630Z,21.00
2023-03-06T19:05:52.141Z,15.70
2023-03-06T19:08:18.849Z,25.00
2023-03-06T19:10:47.214Z,18.53
2023-03-06T19:13:13.862Z,21.53
2023-03-06T19:15:48.208Z,20.27
2023-03-06T19:18:16.930Z,21.10
2023-03-06T19:20:44.647Z,18.00
2023-03-06T19:23:11.315Z,23.33
2023-03-06T19:25:37.741Z,22.23
2023-03-06T19:28:04.395Z,22.27
2023-03-06T19:30:30.866Z,20.13
2023-03-06T19:32:57.350Z,24.10
2023-03-06T19:35:24.864Z,23.27
2023-03-06T19:37:51.841Z,25.30
2023-03-06T19:40:18.709Z,23.70
2023-03-06T19:42:45.307Z,20.77
2023-03-06T19:45:11.964Z,20.33
2023-03-06T19:47:38.399Z,24.00
2023-03-06T19:50:05.049Z,25.80
2023-03-06T19:52:31.424Z,18.40
2023-03-06T19:54:57.738Z,22.37
2023-03-06T19:57:24.078Z,23.80
2023-03-06T19:59:51.274Z,21.87
2023-03-06T20:02:19.516Z,20.83
2023-03-06T20:04:46.695Z,27.10
2023-03-06T20:07:13.063Z,20.57
2023-03-06T20:09:39.414Z,21.57
2023-03-06T20:12:08.215Z,21.83
2023-03-06T20:14:34.752Z,30.33
2023-03-06T20:17:01.068Z,25.90
2023-03-06T20:19:27.579Z,24.07
2023-03-06T20:21:53.993Z,29.30
2023-03-06T20:24:20.406Z,21.17
2023-03-06T20:26:48.816Z,29.20
2023-03-06T20:29:15.151Z,31.17
2023-03-06T20:31:41.718Z,26.20
2023-03-06T20:34:08.101Z,23.23
2023-03-06T20:36:37.065Z,26.40
2023-03-06T20:39:05.938Z,25.00
2023-03-06T20:41:32.923Z,21.07
2023-03-06T20:44:00.817Z,27.13
2023-03-06T20:46:27.483Z,25.60
2023-03-06T20:48:54.774Z,32.17
2023-03-06T20:51:30.102Z,28.20
2023-03-06T20:53:56.517Z,25.70
2023-03-06T20:56:25.856Z,24.43
2023-03-06T20:58:52.921Z,25.73
2023-03-06T21:01:24.134Z,24.07
2023-03-06T21:03:51.070Z,23.77
2023-03-06T21:06:18.046Z,22.67
2023-03-06T21:08:44.669Z,23.27
2023-03-06T21:11:11.288Z,23.70
2023-03-06T21:13:37.923Z,32.73
2023-03-06T21:16:10.217Z,23.90
2023-03-06T21:18:36.571Z,22.73
2023-03-06T21:21:07.513Z,23.00
2023-03-06T21:23:33.840Z,21.40
2023-03-06T21:26:00.185Z,23.33
2023-03-06T21:28:26.865Z,25.53
2023-03-06T21:30:53.363Z,24.87
2023-03-06T21:33:19.709Z,28.23
2023-03-06T21:35:46.876Z,23.53
2023-03-06T21:38:14.035Z,26.10
2023-03-06T21:40:40.995Z,24.10
2023-03-06T21:43:07.332Z,26.63
2023-03-06T21:45:33.680Z,22.53
2023-03-06T21:48:00.655Z,31.67
2023-03-06T21:50:27.597Z,29.60
2023-03-06T21:52:56.133Z,28.10
2023-03-06T21:55:22.907Z,26.33
2023-03-06T21:57:50.856Z,29.43
2023-03-06T22:00:19.282Z,24.20
2023-03-06T22:02:46.652Z,27.90
2023-03-06T22:05:13.487Z,27.93
2023-03-06T22:07:39.892Z,22.00
2023-03-06T22:10:09.254Z,21.33
2023-03-06T22:12:36.308Z,29.70
2023-03-06T22:15:02.685Z,24.80
2023-03-06T22:17:30.378Z,25.63
2023-03-06T22:19:56.756Z,27.17
2023-03-06T22:22:23.379Z,24.70
2023-03-06T22:24:49.722Z,28.80
2023-03-06T22:27:16.645Z,26.17
2023-03-06T22:29:43.235Z,25.33
2023-03-06T22:32:09.676Z,22.80
2023-03-06T22:34:36.096Z,25.00
2023-03-06T22:37:02.438Z,25.83
2023-03-06T22:39:28.769Z,23.80
2023-03-06T22:41:55.727Z,27.40
2023-03-06T22:44:22.484Z,34.50
2023-03-06T22:46:48.872Z,21.17
2023-03-06T22:49:16.724Z,26.40
2023-03-06T22:51:43.516Z,23.60
2023-03-06T22:54:10.066Z,22.70
2023-03-06T22:56:36.631Z,29.00
2023-03-06T22:59:04.251Z,24.10
2023-03-06T23:01:33.291Z,29.57
2023-03-06T23:04:02.207Z,26.90
2023-03-06T23:06:33.968Z,22.10
2023-03-06T23:09:04.176Z,29.00
2023-03-06T23:11:31.461Z,24.30
2023-03-06T23:13:58.263Z,24.10
2023-03-06T23:16:25.064Z,25.90
2023-03-06T23:18:52.982Z,25.73
2023-03-06T23:21:22.095Z,21.50
2023-03-06T23:23:50.715Z,24.93
2023-03-06T23:26:18.910Z,21.20
2023-03-06T23:28:45.372Z,25.37
2023-03-06T23:31:15.887Z,26.67
2023-03-06T23:33:42.439Z,24.57
2023-03-06T23:36:13.875Z,31.70
2023-03-06T23:38:40.904Z,26.60
2023-03-06T23:41:12.720Z,28.07
2023-03-06T23:43:39.677Z,25.70
2023-03-06T23:46:07.128Z,24.23
2023-03-06T23:48:35.323Z,26.80
2023-03-06T23:51:08.478Z,34.37
2023-03-06T23:53:35.321Z,23.33
2023-03-06T23:56:07.472Z,30.23
2023-03-06T23:58:34.181Z,29.90
